• Join FlightAware (Why Join?)
  • Login
  • US Flag 
07:50PM EST


 

Airport Tracker/Info


-or-


 

Live Flight TrackerFlight Track Log ✈ TYR844 ✈ 19-Aug-2013 ✈ LATI / TIA - LOWW / VIE

Flight Track Log - Related Links

Times and Time Zones

All times are in EDT time to prevent confusion due to time zone crossing. See the TYR844 flight status page for this flight to view local times or setup timezone preferences in your user account.

Time Position Orientation Groundspeed Altitude Reporting Facility
EDT Latitude Longitude Course Direction KTS MPH feet Rate Location/Type
10:52PM 43.3213 18.8993 343° North  Level Estimated
10:53PM 43.4215 18.8546 342° North  Level Estimated
10:54PM 43.5216 18.8098 342° North  Level Estimated
10:55PM 43.6218 18.7649 342° North  Level Estimated
10:56PM 43.7219 18.7198 342° North  Level Estimated
10:57PM 43.8220 18.6746 342° North  Level Estimated
10:58PM 43.9221 18.6292 342° North  Level Estimated
10:59PM 44.0222 18.5836 342° North  Level Estimated
11:00PM 44.1222 18.5379 342° North  Level Estimated
11:01PM 44.2223 18.4921 342° North  Level Estimated
11:02PM 44.3223 18.4461 342° North  Level Estimated
11:03PM 44.4223 18.3999 342° North  Level Estimated
11:04PM 44.5223 18.3536 342° North  Level Estimated
11:05PM 44.6222 18.3071 342° North  Level Estimated
11:06PM 44.7222 18.2605 342° North  Level Estimated
11:07PM 44.8221 18.2137 342° North  Level Estimated
11:08PM 44.9220 18.1667 342° North  Level Estimated
11:09PM 45.0219 18.1196 342° North  Level Estimated
11:10PM 45.1218 18.0723 342° North  Level Estimated
11:11PM 45.2216 18.0248 341° North  Level Estimated
11:12PM 45.3214 17.9772 341° North  Level Estimated
11:13PM 45.4213 17.9294 341° North  Level Estimated
11:14PM 45.5210 17.8814 341° North  Level Estimated
11:15PM 45.6208 17.8333 341° North  Level Estimated
11:16PM 45.7206 17.7850 341° North  Level Estimated
11:17PM 45.8203 17.7365 341° North  Level Estimated
11:18PM 45.9200 17.6879 341° North  Level Estimated
11:19PM 46.0197 17.6390 341° North  Level Estimated
11:20PM 46.1194 17.5900 341° North  Level Estimated
11:21PM 46.2190 17.5408 341° North  Level Estimated
11:22PM 46.3186 17.4915 341° North  Level Estimated
11:23PM 46.4182 17.4419 341° North  Level Estimated
11:24PM 46.5178 17.3922 341° North  Level Estimated
11:25PM 46.6174 17.3423 341° North  Level Estimated
11:26PM 46.7169 17.2922 341° North  Level Estimated
11:27PM 46.8164 17.2419 341° North  Level Estimated
11:28PM 46.9159 17.1915 341° North  Level Estimated
11:29PM 47.0154 17.1408 341° North  Level Estimated
11:30PM 47.1148 17.0900 341° North  Level Estimated
11:31PM 47.2142 17.0390 341° North  Level Estimated
11:32PM 47.3136 16.9877 341° North  Level Estimated
11:33PM 47.4130 16.9363 341° North  Level Estimated
11:34PM 47.5124 16.8847 341° North  Level Estimated
11:35PM 47.6117 16.8329 341° North  Level Estimated
11:36PM 47.7110 16.7809 341° North  Level Estimated
11:37PM 47.8103 16.7287 341° North  Level Estimated
11:38PM 47.9096 16.6763 341° North  Level Estimated
11:39PM 48.0088 16.6237 340° North  Level Estimated
11:40PM 48.1080 16.5709 340° North  Level Estimated
11:41PM 48.1103 16.5697 340° North  Level Estimated
11:42PM 48.1103 16.5697 146° Southeast  Level Estimated
11:43PM 48.1103 16.5697 146° Southeast  Level Estimated
11:44PM 48.1103 16.5697 146° Southeast  Level Estimated
11:45PM 48.1103 16.5697 146° Southeast  Level Estimated
11:46PM 48.1103 16.5697 146° Southeast  Level Estimated
11:47PM 48.1103 16.5697 146° Southeast  Level Estimated
11:48PM 48.1103 16.5697 146° Southeast  Level Estimated
11:49PM 48.1103 16.5697 146° Southeast  Level Estimated
11:50PM 48.1103 16.5697 146° Southeast  Level Estimated
11:51PM 48.1103 16.5697 146° Southeast  Level Estimated
11:52PM 48.1103 16.5697 146° Southeast  Level Estimated